sensor_id;sensor_type;location;lat;lon;timestamp;P1;durP1;ratioP1;P2;durP2;ratioP2
77078;SDS011;66004;55.096;38.760;2023-04-23T00:03:56;11.02;;;4.85;;
77078;SDS011;66004;55.096;38.760;2023-04-23T00:06:22;11.95;;;4.60;;
77078;SDS011;66004;55.096;38.760;2023-04-23T00:08:50;11.27;;;4.57;;
77078;SDS011;66004;55.096;38.760;2023-04-23T00:11:18;10.02;;;4.72;;
77078;SDS011;66004;55.096;38.760;2023-04-23T00:13:43;20.77;;;5.35;;
77078;SDS011;66004;55.096;38.760;2023-04-23T00:16:11;16.63;;;6.32;;
77078;SDS011;66004;55.096;38.760;2023-04-23T00:18:37;16.00;;;7.22;;
77078;SDS011;66004;55.096;38.760;2023-04-23T00:21:03;13.75;;;6.00;;
77078;SDS011;66004;55.096;38.760;2023-04-23T00:23:29;14.50;;;5.97;;
77078;SDS011;66004;55.096;38.760;2023-04-23T00:25:54;16.48;;;6.18;;
77078;SDS011;66004;55.096;38.760;2023-04-23T00:28:20;17.02;;;6.53;;
77078;SDS011;66004;55.096;38.760;2023-04-23T00:30:45;16.58;;;6.82;;
77078;SDS011;66004;55.096;38.760;2023-04-23T00:33:11;13.15;;;6.05;;
77078;SDS011;66004;55.096;38.760;2023-04-23T00:35:36;17.00;;;6.40;;
77078;SDS011;66004;55.096;38.760;2023-04-23T00:38:02;14.90;;;5.47;;
77078;SDS011;66004;55.096;38.760;2023-04-23T00:40:28;13.55;;;5.53;;
77078;SDS011;66004;55.096;38.760;2023-04-23T00:42:53;13.73;;;5.60;;
77078;SDS011;66004;55.096;38.760;2023-04-23T00:45:20;13.52;;;5.18;;
77078;SDS011;66004;55.096;38.760;2023-04-23T00:47:46;13.02;;;5.57;;
77078;SDS011;66004;55.096;38.760;2023-04-23T00:50:12;10.70;;;5.32;;
77078;SDS011;66004;55.096;38.760;2023-04-23T00:52:38;10.88;;;5.00;;
77078;SDS011;66004;55.096;38.760;2023-04-23T00:55:05;14.70;;;5.63;;
77078;SDS011;66004;55.096;38.760;2023-04-23T00:57:32;20.42;;;6.50;;
77078;SDS011;66004;55.096;38.760;2023-04-23T00:59:59;19.30;;;5.15;;
77078;SDS011;66004;55.096;38.760;2023-04-23T01:02:25;13.38;;;6.18;;
77078;SDS011;66004;55.096;38.760;2023-04-23T01:04:54;16.00;;;6.13;;
77078;SDS011;66004;55.096;38.760;2023-04-23T01:07:20;19.48;;;5.80;;
77078;SDS011;66004;55.096;38.760;2023-04-23T01:09:47;13.57;;;4.90;;
77078;SDS011;66004;55.096;38.760;2023-04-23T01:12:14;14.02;;;5.25;;
77078;SDS011;66004;55.096;38.760;2023-04-23T01:14:41;12.88;;;4.65;;
77078;SDS011;66004;55.096;38.760;2023-04-23T01:17:08;15.90;;;5.22;;
77078;SDS011;66004;55.096;38.760;2023-04-23T01:19:35;14.20;;;4.85;;
77078;SDS011;66004;55.096;38.760;2023-04-23T01:22:01;9.98;;;4.78;;
77078;SDS011;66004;55.096;38.760;2023-04-23T01:24:28;12.48;;;4.63;;
77078;SDS011;66004;55.096;38.760;2023-04-23T01:26:55;14.18;;;4.93;;
77078;SDS011;66004;55.096;38.760;2023-04-23T01:29:23;12.50;;;4.63;;
77078;SDS011;66004;55.096;38.760;2023-04-23T01:31:49;11.38;;;4.90;;
77078;SDS011;66004;55.096;38.760;2023-04-23T01:36:41;10.10;;;4.70;;
77078;SDS011;66004;55.096;38.760;2023-04-23T01:39:07;13.95;;;4.88;;
77078;SDS011;66004;55.096;38.760;2023-04-23T01:41:33;12.32;;;4.93;;
77078;SDS011;66004;55.096;38.760;2023-04-23T01:43:59;12.52;;;4.45;;
77078;SDS011;66004;55.096;38.760;2023-04-23T01:46:26;16.23;;;6.45;;
77078;SDS011;66004;55.096;38.760;2023-04-23T01:51:17;13.25;;;5.38;;
77078;SDS011;66004;55.096;38.760;2023-04-23T01:53:42;15.93;;;5.18;;
77078;SDS011;66004;55.096;38.760;2023-04-23T01:56:08;13.98;;;5.30;;
77078;SDS011;66004;55.096;38.760;2023-04-23T01:58:34;18.05;;;5.72;;
77078;SDS011;66004;55.096;38.760;2023-04-23T02:01:00;16.45;;;6.85;;
77078;SDS011;66004;55.096;38.760;2023-04-23T02:03:27;17.02;;;6.25;;
77078;SDS011;66004;55.096;38.760;2023-04-23T02:05:54;16.33;;;6.57;;
77078;SDS011;66004;55.096;38.760;2023-04-23T02:08:20;17.23;;;7.07;;
77078;SDS011;66004;55.096;38.760;2023-04-23T02:10:45;19.85;;;7.10;;
77078;SDS011;66004;55.096;38.760;2023-04-23T02:13:11;14.00;;;6.32;;
77078;SDS011;66004;55.096;38.760;2023-04-23T02:15:36;20.55;;;7.43;;
77078;SDS011;66004;55.096;38.760;2023-04-23T02:18:02;23.67;;;7.78;;
77078;SDS011;66004;55.096;38.760;2023-04-23T02:20:28;18.88;;;6.40;;
77078;SDS011;66004;55.096;38.760;2023-04-23T02:22:54;14.30;;;6.00;;
77078;SDS011;66004;55.096;38.760;2023-04-23T02:25:20;16.52;;;6.57;;
77078;SDS011;66004;55.096;38.760;2023-04-23T02:27:47;13.80;;;6.15;;
77078;SDS011;66004;55.096;38.760;2023-04-23T02:32:38;14.25;;;6.32;;
77078;SDS011;66004;55.096;38.760;2023-04-23T02:35:04;20.73;;;7.00;;
77078;SDS011;66004;55.096;38.760;2023-04-23T02:37:33;18.00;;;6.45;;
77078;SDS011;66004;55.096;38.760;2023-04-23T02:40:00;19.95;;;7.60;;
77078;SDS011;66004;55.096;38.760;2023-04-23T02:42:25;21.33;;;8.20;;
77078;SDS011;66004;55.096;38.760;2023-04-23T02:44:51;18.60;;;7.20;;
77078;SDS011;66004;55.096;38.760;2023-04-23T02:47:17;16.85;;;7.13;;
77078;SDS011;66004;55.096;38.760;2023-04-23T06:16:53;12.52;;;3.47;;
77078;SDS011;66004;55.096;38.760;2023-04-23T06:19:18;10.57;;;3.83;;
77078;SDS011;66004;55.096;38.760;2023-04-23T06:21:44;20.25;;;4.00;;
77078;SDS011;66004;55.096;38.760;2023-04-23T06:24:09;8.13;;;3.00;;
77078;SDS011;66004;55.096;38.760;2023-04-23T06:26:35;19.65;;;3.10;;
77078;SDS011;66004;55.096;38.760;2023-04-23T06:29:01;7.70;;;2.72;;
77078;SDS011;66004;55.096;38.760;2023-04-23T06:31:26;5.07;;;2.40;;
77078;SDS011;66004;55.096;38.760;2023-04-23T06:33:52;13.45;;;2.17;;
77078;SDS011;66004;55.096;38.760;2023-04-23T06:36:18;6.00;;;2.00;;
77078;SDS011;66004;55.096;38.760;2023-04-23T06:38:45;5.47;;;1.90;;
77078;SDS011;66004;55.096;38.760;2023-04-23T06:41:10;7.00;;;1.45;;
77078;SDS011;66004;55.096;38.760;2023-04-23T06:43:37;12.88;;;2.05;;
77078;SDS011;66004;55.096;38.760;2023-04-23T06:46:02;12.65;;;2.13;;
77078;SDS011;66004;55.096;38.760;2023-04-23T06:48:28;3.53;;;1.40;;
77078;SDS011;66004;55.096;38.760;2023-04-23T06:50:53;3.72;;;1.05;;
77078;SDS011;66004;55.096;38.760;2023-04-23T06:53:19;2.38;;;1.30;;
77078;SDS011;66004;55.096;38.760;2023-04-23T06:55:44;17.88;;;2.00;;
77078;SDS011;66004;55.096;38.760;2023-04-23T06:58:10;2.35;;;1.48;;
77078;SDS011;66004;55.096;38.760;2023-04-23T07:00:35;6.57;;;1.45;;
77078;SDS011;66004;55.096;38.760;2023-04-23T07:03:01;6.28;;;1.70;;
77078;SDS011;66004;55.096;38.760;2023-04-23T07:05:27;7.90;;;1.77;;
77078;SDS011;66004;55.096;38.760;2023-04-23T07:07:52;2.70;;;1.52;;
77078;SDS011;66004;55.096;38.760;2023-04-23T07:10:18;8.18;;;1.40;;
77078;SDS011;66004;55.096;38.760;2023-04-23T07:12:45;8.48;;;1.85;;
77078;SDS011;66004;55.096;38.760;2023-04-23T07:15:11;4.75;;;1.35;;
77078;SDS011;66004;55.096;38.760;2023-04-23T07:17:36;2.53;;;1.10;;
77078;SDS011;66004;55.096;38.760;2023-04-23T07:20:02;16.65;;;3.85;;
77078;SDS011;66004;55.096;38.760;2023-04-23T07:22:32;10.45;;;2.05;;
77078;SDS011;66004;55.096;38.760;2023-04-23T07:24:58;8.13;;;1.55;;
77078;SDS011;66004;55.096;38.760;2023-04-23T07:27:24;10.02;;;2.15;;
77078;SDS011;66004;55.096;38.760;2023-04-23T07:29:50;7.70;;;2.03;;
77078;SDS011;66004;55.096;38.760;2023-04-23T07:32:16;2.85;;;1.67;;
77078;SDS011;66004;55.096;38.760;2023-04-23T07:34:42;3.45;;;1.70;;
77078;SDS011;66004;55.096;38.760;2023-04-23T07:37:07;4.25;;;1.58;;
77078;SDS011;66004;55.096;38.760;2023-04-23T07:39:33;7.75;;;1.75;;
77078;SDS011;66004;55.096;38.760;2023-04-23T07:41:59;11.05;;;1.90;;
77078;SDS011;66004;55.096;38.760;2023-04-23T07:44:26;5.30;;;1.40;;
77078;SDS011;66004;55.096;38.760;2023-04-23T07:46:51;37.00;;;3.17;;
77078;SDS011;66004;55.096;38.760;2023-04-23T07:49:17;8.07;;;1.98;;
77078;SDS011;66004;55.096;38.760;2023-04-23T07:51:42;3.42;;;1.40;;
77078;SDS011;66004;55.096;38.760;2023-04-23T07:54:08;8.98;;;2.03;;
77078;SDS011;66004;55.096;38.760;2023-04-23T07:56:34;5.90;;;1.77;;
77078;SDS011;66004;55.096;38.760;2023-04-23T07:59:00;6.60;;;1.40;;
77078;SDS011;66004;55.096;38.760;2023-04-23T08:01:27;54.42;;;4.18;;
77078;SDS011;66004;55.096;38.760;2023-04-23T08:03:52;2.95;;;1.35;;
77078;SDS011;66004;55.096;38.760;2023-04-23T08:06:20;3.83;;;1.52;;
77078;SDS011;66004;55.096;38.760;2023-04-23T08:08:47;7.45;;;1.60;;
77078;SDS011;66004;55.096;38.760;2023-04-23T08:11:13;6.43;;;1.50;;
77078;SDS011;66004;55.096;38.760;2023-04-23T08:13:38;18.85;;;2.08;;
77078;SDS011;66004;55.096;38.760;2023-04-23T08:16:04;5.40;;;2.17;;
77078;SDS011;66004;55.096;38.760;2023-04-23T08:18:30;11.13;;;1.90;;
77078;SDS011;66004;55.096;38.760;2023-04-23T08:20:56;5.32;;;1.63;;
77078;SDS011;66004;55.096;38.760;2023-04-23T08:23:22;5.47;;;1.70;;
77078;SDS011;66004;55.096;38.760;2023-04-23T08:25:48;5.10;;;1.63;;
77078;SDS011;66004;55.096;38.760;2023-04-23T08:28:14;3.70;;;1.33;;
77078;SDS011;66004;55.096;38.760;2023-04-23T08:30:40;4.28;;;1.45;;
77078;SDS011;66004;55.096;38.760;2023-04-23T08:33:05;3.53;;;1.45;;
77078;SDS011;66004;55.096;38.760;2023-04-23T08:35:31;3.72;;;1.33;;
77078;SDS011;66004;55.096;38.760;2023-04-23T08:37:56;16.83;;;1.60;;
77078;SDS011;66004;55.096;38.760;2023-04-23T08:40:22;12.73;;;1.48;;
77078;SDS011;66004;55.096;38.760;2023-04-23T08:45:16;9.75;;;1.65;;
77078;SDS011;66004;55.096;38.760;2023-04-23T08:47:42;2.67;;;1.23;;
77078;SDS011;66004;55.096;38.760;2023-04-23T08:52:25;2.47;;;1.17;;
77078;SDS011;66004;55.096;38.760;2023-04-23T08:55:00;4.13;;;1.60;;
77078;SDS011;66004;55.096;38.760;2023-04-23T08:57:28;3.45;;;1.38;;
77078;SDS011;66004;55.096;38.760;2023-04-23T08:59:55;7.50;;;1.33;;
77078;SDS011;66004;55.096;38.760;2023-04-23T09:02:22;5.97;;;1.33;;
77078;SDS011;66004;55.096;38.760;2023-04-23T09:04:48;12.95;;;3.55;;
77078;SDS011;66004;55.096;38.760;2023-04-23T09:07:14;9.88;;;2.13;;
77078;SDS011;66004;55.096;38.760;2023-04-23T09:09:41;6.03;;;1.40;;
77078;SDS011;66004;55.096;38.760;2023-04-23T09:12:07;10.73;;;1.52;;
77078;SDS011;66004;55.096;38.760;2023-04-23T09:14:34;4.13;;;1.38;;
77078;SDS011;66004;55.096;38.760;2023-04-23T09:17:01;4.60;;;1.83;;
77078;SDS011;66004;55.096;38.760;2023-04-23T09:19:27;11.10;;;1.98;;
77078;SDS011;66004;55.096;38.760;2023-04-23T09:21:53;11.23;;;1.98;;
77078;SDS011;66004;55.096;38.760;2023-04-23T09:24:22;4.05;;;1.77;;
77078;SDS011;66004;55.096;38.760;2023-04-23T09:26:49;5.35;;;1.60;;
77078;SDS011;66004;55.096;38.760;2023-04-23T09:29:16;13.13;;;1.85;;
77078;SDS011;66004;55.096;38.760;2023-04-23T09:34:17;4.05;;;1.75;;
77078;SDS011;66004;55.096;38.760;2023-04-23T09:36:43;5.43;;;2.20;;
77078;SDS011;66004;55.096;38.760;2023-04-23T09:39:10;7.30;;;1.65;;
77078;SDS011;66004;55.096;38.760;2023-04-23T09:41:37;3.38;;;1.70;;
77078;SDS011;66004;55.096;38.760;2023-04-23T09:44:03;9.32;;;1.90;;
77078;SDS011;66004;55.096;38.760;2023-04-23T09:49:02;5.57;;;1.60;;
77078;SDS011;66004;55.096;38.760;2023-04-23T09:51:31;4.47;;;1.42;;
77078;SDS011;66004;55.096;38.760;2023-04-23T09:54:00;5.07;;;2.60;;
77078;SDS011;66004;55.096;38.760;2023-04-23T09:56:28;7.43;;;1.27;;
77078;SDS011;66004;55.096;38.760;2023-04-23T09:58:55;6.18;;;2.00;;
77078;SDS011;66004;55.096;38.760;2023-04-23T10:01:26;9.82;;;1.67;;
77078;SDS011;66004;55.096;38.760;2023-04-23T10:03:53;5.45;;;1.70;;
77078;SDS011;66004;55.096;38.760;2023-04-23T10:06:25;14.05;;;2.05;;
77078;SDS011;66004;55.096;38.760;2023-04-23T10:08:53;5.93;;;2.20;;
77078;SDS011;66004;55.096;38.760;2023-04-23T10:11:21;4.82;;;1.70;;
77078;SDS011;66004;55.096;38.760;2023-04-23T10:13:48;8.63;;;2.42;;
77078;SDS011;66004;55.096;38.760;2023-04-23T10:16:15;4.03;;;1.48;;
77078;SDS011;66004;55.096;38.760;2023-04-23T10:18:42;7.47;;;1.60;;
77078;SDS011;66004;55.096;38.760;2023-04-23T10:21:09;6.50;;;1.85;;
77078;SDS011;66004;55.096;38.760;2023-04-23T10:23:36;4.18;;;1.73;;
77078;SDS011;66004;55.096;38.760;2023-04-23T10:26:05;8.02;;;2.03;;
77078;SDS011;66004;55.096;38.760;2023-04-23T10:28:33;9.07;;;1.88;;
77078;SDS011;66004;55.096;38.760;2023-04-23T10:31:00;3.83;;;2.08;;
77078;SDS011;66004;55.096;38.760;2023-04-23T10:33:27;11.88;;;2.05;;
77078;SDS011;66004;55.096;38.760;2023-04-23T10:35:55;4.68;;;1.85;;
77078;SDS011;66004;55.096;38.760;2023-04-23T10:38:21;5.18;;;2.00;;
77078;SDS011;66004;55.096;38.760;2023-04-23T10:40:48;10.65;;;2.08;;
77078;SDS011;66004;55.096;38.760;2023-04-23T10:43:17;8.38;;;2.10;;
77078;SDS011;66004;55.096;38.760;2023-04-23T10:45:43;17.38;;;2.25;;
77078;SDS011;66004;55.096;38.760;2023-04-23T10:48:09;34.70;;;7.25;;
77078;SDS011;66004;55.096;38.760;2023-04-23T10:50:35;23.83;;;4.57;;
77078;SDS011;66004;55.096;38.760;2023-04-23T10:53:01;8.75;;;2.25;;
77078;SDS011;66004;55.096;38.760;2023-04-23T10:55:28;10.40;;;1.75;;
77078;SDS011;66004;55.096;38.760;2023-04-23T10:57:56;4.43;;;1.80;;
77078;SDS011;66004;55.096;38.760;2023-04-23T11:00:28;5.13;;;1.77;;
77078;SDS011;66004;55.096;38.760;2023-04-23T11:06:00;5.20;;;1.70;;
77078;SDS011;66004;55.096;38.760;2023-04-23T11:08:29;3.00;;;1.40;;
77078;SDS011;66004;55.096;38.760;2023-04-23T11:10:58;9.23;;;1.73;;
77078;SDS011;66004;55.096;38.760;2023-04-23T11:13:25;6.55;;;1.63;;
77078;SDS011;66004;55.096;38.760;2023-04-23T11:22:09;4.43;;;1.50;;
77078;SDS011;66004;55.096;38.760;2023-04-23T11:27:11;8.25;;;1.40;;
77078;SDS011;66004;55.096;38.760;2023-04-23T11:29:38;4.90;;;1.63;;
77078;SDS011;66004;55.096;38.760;2023-04-23T11:32:05;5.90;;;1.65;;
77078;SDS011;66004;55.096;38.760;2023-04-23T11:34:44;6.80;;;1.90;;
77078;SDS011;66004;55.096;38.760;2023-04-23T11:37:12;10.60;;;1.80;;
77078;SDS011;66004;55.096;38.760;2023-04-23T11:39:41;4.63;;;1.40;;
77078;SDS011;66004;55.096;38.760;2023-04-23T11:42:12;2.22;;;1.38;;
77078;SDS011;66004;55.096;38.760;2023-04-23T11:44:38;5.40;;;1.83;;
77078;SDS011;66004;55.096;38.760;2023-04-23T11:47:09;2.85;;;1.67;;
77078;SDS011;66004;55.096;38.760;2023-04-23T11:49:40;13.07;;;2.03;;
77078;SDS011;66004;55.096;38.760;2023-04-23T11:52:07;2.80;;;1.30;;
77078;SDS011;66004;55.096;38.760;2023-04-23T11:54:33;6.95;;;1.83;;
77078;SDS011;66004;55.096;38.760;2023-04-23T11:56:59;14.60;;;1.88;;
77078;SDS011;66004;55.096;38.760;2023-04-23T11:59:25;8.13;;;1.80;;
77078;SDS011;66004;55.096;38.760;2023-04-23T12:01:53;4.57;;;1.40;;
77078;SDS011;66004;55.096;38.760;2023-04-23T12:04:21;4.57;;;1.63;;
77078;SDS011;66004;55.096;38.760;2023-04-23T12:06:48;12.82;;;2.33;;
77078;SDS011;66004;55.096;38.760;2023-04-23T12:09:15;8.32;;;2.03;;
77078;SDS011;66004;55.096;38.760;2023-04-23T12:11:42;4.93;;;2.10;;
77078;SDS011;66004;55.096;38.760;2023-04-23T12:14:10;5.82;;;1.67;;
77078;SDS011;66004;55.096;38.760;2023-04-23T12:19:06;3.53;;;1.48;;
77078;SDS011;66004;55.096;38.760;2023-04-23T12:21:46;2.95;;;1.33;;
77078;SDS011;66004;55.096;38.760;2023-04-23T12:24:13;4.43;;;1.60;;
77078;SDS011;66004;55.096;38.760;2023-04-23T12:26:38;15.18;;;2.35;;
77078;SDS011;66004;55.096;38.760;2023-04-23T12:29:06;5.50;;;1.92;;
77078;SDS011;66004;55.096;38.760;2023-04-23T12:31:32;4.47;;;1.48;;
77078;SDS011;66004;55.096;38.760;2023-04-23T12:36:25;14.50;;;2.45;;
77078;SDS011;66004;55.096;38.760;2023-04-23T12:38:53;2.78;;;1.80;;
77078;SDS011;66004;55.096;38.760;2023-04-23T12:41:19;4.18;;;2.00;;
77078;SDS011;66004;55.096;38.760;2023-04-23T12:43:44;8.85;;;1.73;;
77078;SDS011;66004;55.096;38.760;2023-04-23T12:46:12;2.80;;;1.75;;
77078;SDS011;66004;55.096;38.760;2023-04-23T12:48:38;5.65;;;1.63;;
77078;SDS011;66004;55.096;38.760;2023-04-23T12:51:04;6.35;;;2.20;;
77078;SDS011;66004;55.096;38.760;2023-04-23T12:53:30;10.38;;;3.05;;
77078;SDS011;66004;55.096;38.760;2023-04-23T12:55:56;10.95;;;2.90;;
77078;SDS011;66004;55.096;38.760;2023-04-23T12:58:21;8.85;;;1.80;;
77078;SDS011;66004;55.096;38.760;2023-04-23T13:00:47;7.22;;;1.85;;
77078;SDS011;66004;55.096;38.760;2023-04-23T13:03:12;6.88;;;2.05;;
77078;SDS011;66004;55.096;38.760;2023-04-23T13:05:39;5.70;;;3.08;;
77078;SDS011;66004;55.096;38.760;2023-04-23T13:08:05;3.58;;;1.58;;
77078;SDS011;66004;55.096;38.760;2023-04-23T13:10:31;11.65;;;2.10;;
77078;SDS011;66004;55.096;38.760;2023-04-23T13:12:57;5.50;;;2.00;;
77078;SDS011;66004;55.096;38.760;2023-04-23T13:15:22;7.22;;;2.30;;
77078;SDS011;66004;55.096;38.760;2023-04-23T13:17:48;6.05;;;2.38;;
77078;SDS011;66004;55.096;38.760;2023-04-23T13:20:13;10.25;;;3.47;;
77078;SDS011;66004;55.096;38.760;2023-04-23T13:22:39;11.95;;;2.90;;
77078;SDS011;66004;55.096;38.760;2023-04-23T13:25:04;4.50;;;2.25;;
77078;SDS011;66004;55.096;38.760;2023-04-23T13:27:30;5.90;;;3.05;;
77078;SDS011;66004;55.096;38.760;2023-04-23T13:29:56;3.55;;;2.25;;
77078;SDS011;66004;55.096;38.760;2023-04-23T13:32:22;3.95;;;2.33;;
77078;SDS011;66004;55.096;38.760;2023-04-23T13:34:51;9.80;;;2.95;;
77078;SDS011;66004;55.096;38.760;2023-04-23T13:37:16;6.63;;;2.65;;
77078;SDS011;66004;55.096;38.760;2023-04-23T13:39:42;4.70;;;2.22;;
77078;SDS011;66004;55.096;38.760;2023-04-23T13:42:08;6.78;;;2.40;;
77078;SDS011;66004;55.096;38.760;2023-04-23T13:44:33;8.10;;;2.33;;
77078;SDS011;66004;55.096;38.760;2023-04-23T13:46:59;14.23;;;3.00;;
77078;SDS011;66004;55.096;38.760;2023-04-23T13:49:25;4.32;;;2.65;;
77078;SDS011;66004;55.096;38.760;2023-04-23T13:51:52;8.95;;;4.20;;
77078;SDS011;66004;55.096;38.760;2023-04-23T13:54:24;20.90;;;3.47;;
77078;SDS011;66004;55.096;38.760;2023-04-23T13:56:54;16.80;;;2.83;;
77078;SDS011;66004;55.096;38.760;2023-04-23T13:59:19;20.15;;;3.13;;
77078;SDS011;66004;55.096;38.760;2023-04-23T14:01:45;5.90;;;3.28;;
77078;SDS011;66004;55.096;38.760;2023-04-23T14:04:13;10.60;;;2.88;;
77078;SDS011;66004;55.096;38.760;2023-04-23T14:06:39;4.50;;;3.03;;
77078;SDS011;66004;55.096;38.760;2023-04-23T14:09:05;11.07;;;3.38;;
77078;SDS011;66004;55.096;38.760;2023-04-23T14:11:30;6.53;;;3.30;;
77078;SDS011;66004;55.096;38.760;2023-04-23T14:13:56;15.77;;;3.33;;
77078;SDS011;66004;55.096;38.760;2023-04-23T14:16:22;7.70;;;4.30;;
77078;SDS011;66004;55.096;38.760;2023-04-23T14:18:47;8.32;;;4.20;;
77078;SDS011;66004;55.096;38.760;2023-04-23T14:21:13;7.60;;;4.70;;
77078;SDS011;66004;55.096;38.760;2023-04-23T14:26:40;9.57;;;4.60;;
77078;SDS011;66004;55.096;38.760;2023-04-23T14:29:09;25.20;;;4.60;;
77078;SDS011;66004;55.096;38.760;2023-04-23T14:31:42;8.45;;;4.45;;
77078;SDS011;66004;55.096;38.760;2023-04-23T14:34:08;11.80;;;4.60;;
77078;SDS011;66004;55.096;38.760;2023-04-23T14:36:33;9.57;;;4.95;;
77078;SDS011;66004;55.096;38.760;2023-04-23T14:38:59;6.78;;;4.20;;
77078;SDS011;66004;55.096;38.760;2023-04-23T14:41:29;8.32;;;3.90;;
77078;SDS011;66004;55.096;38.760;2023-04-23T14:44:00;5.47;;;3.70;;
77078;SDS011;66004;55.096;38.760;2023-04-23T14:46:26;8.90;;;4.28;;
77078;SDS011;66004;55.096;38.760;2023-04-23T14:48:52;10.90;;;3.90;;
77078;SDS011;66004;55.096;38.760;2023-04-23T16:35:58;40.40;;;6.13;;
77078;SDS011;66004;55.096;38.760;2023-04-23T16:38:24;38.08;;;6.85;;
77078;SDS011;66004;55.096;38.760;2023-04-23T16:40:49;20.92;;;6.03;;
77078;SDS011;66004;55.096;38.760;2023-04-23T16:43:15;60.45;;;8.20;;
77078;SDS011;66004;55.096;38.760;2023-04-23T16:45:41;49.08;;;8.27;;
77078;SDS011;66004;55.096;38.760;2023-04-23T16:48:07;20.13;;;6.30;;
77078;SDS011;66004;55.096;38.760;2023-04-23T16:50:32;32.78;;;6.90;;
77078;SDS011;66004;55.096;38.760;2023-04-23T16:52:58;54.45;;;9.30;;
77078;SDS011;66004;55.096;38.760;2023-04-23T16:55:23;47.78;;;7.85;;
77078;SDS011;66004;55.096;38.760;2023-04-23T16:57:49;56.83;;;9.50;;
77078;SDS011;66004;55.096;38.760;2023-04-23T17:00:14;60.95;;;11.13;;
77078;SDS011;66004;55.096;38.760;2023-04-23T17:02:41;39.42;;;12.40;;
77078;SDS011;66004;55.096;38.760;2023-04-23T17:05:07;37.65;;;14.93;;
77078;SDS011;66004;55.096;38.760;2023-04-23T17:07:33;53.00;;;16.00;;
77078;SDS011;66004;55.096;38.760;2023-04-23T17:09:59;29.40;;;13.32;;
77078;SDS011;66004;55.096;38.760;2023-04-23T17:12:25;40.35;;;13.57;;
77078;SDS011;66004;55.096;38.760;2023-04-23T17:14:50;33.88;;;13.20;;
77078;SDS011;66004;55.096;38.760;2023-04-23T17:17:16;40.53;;;13.50;;
77078;SDS011;66004;55.096;38.760;2023-04-23T17:19:41;43.75;;;12.52;;
77078;SDS011;66004;55.096;38.760;2023-04-23T17:22:07;31.65;;;12.95;;
77078;SDS011;66004;55.096;38.760;2023-04-23T17:24:34;36.15;;;14.40;;
77078;SDS011;66004;55.096;38.760;2023-04-23T17:27:00;40.53;;;13.02;;
77078;SDS011;66004;55.096;38.760;2023-04-23T17:29:26;38.15;;;14.82;;
77078;SDS011;66004;55.096;38.760;2023-04-23T17:31:52;36.20;;;14.23;;
77078;SDS011;66004;55.096;38.760;2023-04-23T17:34:17;68.70;;;17.00;;
77078;SDS011;66004;55.096;38.760;2023-04-23T17:36:43;50.83;;;13.02;;
77078;SDS011;66004;55.096;38.760;2023-04-23T17:39:08;86.57;;;18.00;;
77078;SDS011;66004;55.096;38.760;2023-04-23T17:41:34;71.05;;;16.27;;
77078;SDS011;66004;55.096;38.760;2023-04-23T17:43:59;59.67;;;16.00;;
77078;SDS011;66004;55.096;38.760;2023-04-23T17:46:25;66.25;;;19.73;;
77078;SDS011;66004;55.096;38.760;2023-04-23T17:48:50;84.53;;;20.92;;
77078;SDS011;66004;55.096;38.760;2023-04-23T17:51:16;90.00;;;29.98;;
77078;SDS011;66004;55.096;38.760;2023-04-23T17:53:43;91.72;;;32.65;;
77078;SDS011;66004;55.096;38.760;2023-04-23T17:56:17;86.55;;;28.95;;
77078;SDS011;66004;55.096;38.760;2023-04-23T17:58:42;87.45;;;29.50;;
77078;SDS011;66004;55.096;38.760;2023-04-23T18:01:08;71.38;;;26.20;;
77078;SDS011;66004;55.096;38.760;2023-04-23T18:03:34;59.38;;;22.33;;
77078;SDS011;66004;55.096;38.760;2023-04-23T18:06:00;62.50;;;24.10;;
77078;SDS011;66004;55.096;38.760;2023-04-23T18:08:26;56.67;;;21.05;;
77078;SDS011;66004;55.096;38.760;2023-04-23T18:10:51;46.97;;;19.00;;
77078;SDS011;66004;55.096;38.760;2023-04-23T18:13:17;49.42;;;17.73;;
77078;SDS011;66004;55.096;38.760;2023-04-23T18:15:42;65.43;;;19.48;;
77078;SDS011;66004;55.096;38.760;2023-04-23T18:18:13;51.17;;;17.33;;
77078;SDS011;66004;55.096;38.760;2023-04-23T18:20:39;54.15;;;16.95;;
77078;SDS011;66004;55.096;38.760;2023-04-23T18:23:04;60.35;;;16.02;;
77078;SDS011;66004;55.096;38.760;2023-04-23T18:25:30;48.25;;;15.20;;
77078;SDS011;66004;55.096;38.760;2023-04-23T18:27:56;43.50;;;15.60;;
77078;SDS011;66004;55.096;38.760;2023-04-23T18:30:22;46.10;;;16.33;;
77078;SDS011;66004;55.096;38.760;2023-04-23T18:32:53;44.70;;;15.00;;
77078;SDS011;66004;55.096;38.760;2023-04-23T18:35:24;48.70;;;15.40;;
77078;SDS011;66004;55.096;38.760;2023-04-23T18:37:53;44.70;;;15.48;;
77078;SDS011;66004;55.096;38.760;2023-04-23T18:40:26;45.70;;;15.25;;
77078;SDS011;66004;55.096;38.760;2023-04-23T18:42:52;59.65;;;17.15;;
77078;SDS011;66004;55.096;38.760;2023-04-23T18:45:18;52.85;;;19.17;;
77078;SDS011;66004;55.096;38.760;2023-04-23T18:47:48;72.28;;;22.38;;
77078;SDS011;66004;55.096;38.760;2023-04-23T18:50:29;65.20;;;20.00;;
77078;SDS011;66004;55.096;38.760;2023-04-23T18:53:15;62.45;;;21.15;;
77078;SDS011;66004;55.096;38.760;2023-04-23T18:55:40;60.90;;;19.65;;
77078;SDS011;66004;55.096;38.760;2023-04-23T18:58:08;62.72;;;20.98;;
77078;SDS011;66004;55.096;38.760;2023-04-23T19:00:33;63.30;;;20.27;;
77078;SDS011;66004;55.096;38.760;2023-04-23T19:02:59;69.65;;;21.13;;
77078;SDS011;66004;55.096;38.760;2023-04-23T19:05:24;58.38;;;20.42;;
77078;SDS011;66004;55.096;38.760;2023-04-23T19:07:50;53.83;;;19.85;;
77078;SDS011;66004;55.096;38.760;2023-04-23T19:10:16;59.47;;;25.70;;
77078;SDS011;66004;55.096;38.760;2023-04-23T19:12:41;44.30;;;19.10;;
77078;SDS011;66004;55.096;38.760;2023-04-23T19:15:08;46.72;;;17.15;;
77078;SDS011;66004;55.096;38.760;2023-04-23T19:17:34;67.35;;;22.55;;
77078;SDS011;66004;55.096;38.760;2023-04-23T19:20:00;69.50;;;21.98;;
77078;SDS011;66004;55.096;38.760;2023-04-23T19:22:26;56.28;;;20.25;;
77078;SDS011;66004;55.096;38.760;2023-04-23T19:24:51;62.63;;;20.65;;
77078;SDS011;66004;55.096;38.760;2023-04-23T19:27:17;59.55;;;20.40;;
77078;SDS011;66004;55.096;38.760;2023-04-23T19:29:42;53.33;;;19.92;;
77078;SDS011;66004;55.096;38.760;2023-04-23T19:32:09;52.63;;;17.00;;
77078;SDS011;66004;55.096;38.760;2023-04-23T19:34:35;57.70;;;22.10;;
77078;SDS011;66004;55.096;38.760;2023-04-23T19:37:00;51.78;;;19.15;;
77078;SDS011;66004;55.096;38.760;2023-04-23T19:39:26;60.05;;;21.33;;
77078;SDS011;66004;55.096;38.760;2023-04-23T19:41:51;61.92;;;22.83;;
77078;SDS011;66004;55.096;38.760;2023-04-23T19:44:19;49.50;;;16.50;;
77078;SDS011;66004;55.096;38.760;2023-04-23T19:46:44;49.00;;;17.88;;
77078;SDS011;66004;55.096;38.760;2023-04-23T19:49:10;53.83;;;17.45;;
77078;SDS011;66004;55.096;38.760;2023-04-23T19:51:35;47.88;;;18.95;;
77078;SDS011;66004;55.096;38.760;2023-04-23T19:54:02;39.78;;;15.80;;
77078;SDS011;66004;55.096;38.760;2023-04-23T19:56:28;57.22;;;16.35;;
77078;SDS011;66004;55.096;38.760;2023-04-23T19:58:54;32.83;;;12.95;;
77078;SDS011;66004;55.096;38.760;2023-04-23T20:01:19;34.60;;;12.73;;
77078;SDS011;66004;55.096;38.760;2023-04-23T20:03:45;25.63;;;11.27;;
77078;SDS011;66004;55.096;38.760;2023-04-23T20:06:14;35.03;;;12.48;;
77078;SDS011;66004;55.096;38.760;2023-04-23T20:08:40;36.17;;;12.02;;
77078;SDS011;66004;55.096;38.760;2023-04-23T20:11:17;30.45;;;10.55;;